createdAt,value
2022-08-11T00:00:23.807Z,15
2022-08-11T00:01:23.785Z,12
2022-08-11T00:02:23.785Z,12
2022-08-11T00:03:23.786Z,11
2022-08-11T00:04:23.786Z,11
2022-08-11T00:05:23.786Z,14
2022-08-11T00:06:23.787Z,11
2022-08-11T00:07:23.810Z,11
2022-08-11T00:08:23.810Z,9
2022-08-11T00:09:23.810Z,10
2022-08-11T00:10:23.811Z,10
2022-08-11T00:11:23.811Z,13
2022-08-11T00:12:23.812Z,12
2022-08-11T00:13:23.812Z,10
2022-08-11T00:14:23.813Z,10
2022-08-11T00:15:23.813Z,10
2022-08-11T00:16:23.854Z,9
2022-08-11T00:17:23.791Z,9
2022-08-11T00:18:23.792Z,9
2022-08-11T00:19:23.792Z,9
2022-08-11T00:20:23.792Z,10
2022-08-11T00:21:23.793Z,11
2022-08-11T00:22:23.793Z,10
2022-08-11T00:23:23.816Z,11
2022-08-11T00:24:23.816Z,10
2022-08-11T00:25:23.857Z,12
2022-08-11T00:26:23.817Z,13
2022-08-11T00:27:23.818Z,14
2022-08-11T00:28:23.818Z,15
2022-08-11T00:29:23.818Z,12
2022-08-11T00:30:23.819Z,13
2022-08-11T00:31:23.819Z,16
2022-08-11T00:32:23.797Z,11
2022-08-11T00:33:23.797Z,13
2022-08-11T00:34:23.798Z,12
2022-08-11T00:35:23.798Z,12
2022-08-11T00:36:23.799Z,11
2022-08-11T00:37:23.799Z,11
2022-08-11T00:38:23.822Z,9
2022-08-11T00:39:23.822Z,10
2022-08-11T00:40:23.823Z,9
2022-08-11T00:41:23.823Z,8
2022-08-11T00:42:23.823Z,10
2022-08-11T00:43:23.824Z,9
2022-08-11T00:44:23.824Z,10
2022-08-11T00:45:23.825Z,15
2022-08-11T00:46:23.825Z,15
2022-08-11T00:47:23.803Z,13
2022-08-11T00:48:23.803Z,13
2022-08-11T00:49:23.804Z,14
2022-08-11T00:50:23.804Z,15
2022-08-11T00:51:23.805Z,14
2022-08-11T00:52:23.805Z,15
2022-08-11T00:53:23.828Z,15
2022-08-11T00:54:23.828Z,12
2022-08-11T00:55:23.828Z,12
2022-08-11T00:56:23.829Z,14
2022-08-11T00:57:23.829Z,15
2022-08-11T00:58:23.830Z,13
2022-08-11T00:59:23.830Z,14
2022-08-11T01:00:23.831Z,18
2022-08-11T01:01:23.831Z,13
2022-08-11T01:02:23.809Z,15
2022-08-11T01:03:23.809Z,12
2022-08-11T01:04:23.810Z,12
2022-08-11T01:05:23.810Z,13
2022-08-11T01:06:23.810Z,13
2022-08-11T01:07:23.811Z,14
2022-08-11T01:08:23.834Z,15
2022-08-11T01:09:23.834Z,16
2022-08-11T01:10:23.834Z,17
2022-08-11T01:11:23.835Z,18
2022-08-11T01:12:23.835Z,22
2022-08-11T01:13:23.835Z,16
2022-08-11T01:14:23.836Z,15
2022-08-11T01:15:23.836Z,16
2022-08-11T01:16:23.837Z,14
2022-08-11T01:17:23.878Z,16
2022-08-11T01:18:23.815Z,14
2022-08-11T01:19:23.815Z,15
2022-08-11T01:20:23.816Z,16
2022-08-11T01:21:23.816Z,16
2022-08-11T01:22:23.816Z,13
2022-08-11T01:23:23.817Z,16
2022-08-11T01:24:23.839Z,14
2022-08-11T01:25:23.840Z,12
2022-08-11T01:26:23.880Z,14
2022-08-11T01:27:23.841Z,17
2022-08-11T01:28:23.841Z,20
2022-08-11T01:29:23.841Z,17
2022-08-11T01:30:23.842Z,16
2022-08-11T01:31:23.842Z,17
2022-08-11T01:32:23.843Z,14
2022-08-11T01:33:23.821Z,13
2022-08-11T01:34:23.821Z,14
2022-08-11T01:35:23.822Z,13
2022-08-11T01:36:23.822Z,13
2022-08-11T01:37:23.822Z,15
2022-08-11T01:38:23.822Z,14
2022-08-11T01:39:23.845Z,17
2022-08-11T01:40:23.846Z,12
2022-08-11T01:41:23.846Z,15
2022-08-11T01:42:23.846Z,15
2022-08-11T01:43:23.847Z,16
2022-08-11T01:44:23.847Z,13
2022-08-11T01:45:23.848Z,16
2022-08-11T01:46:23.848Z,12
2022-08-11T01:47:23.848Z,12
2022-08-11T01:48:23.826Z,16
2022-08-11T01:49:23.827Z,17
2022-08-11T01:50:23.827Z,19
2022-08-11T01:51:23.827Z,15
2022-08-11T01:52:23.828Z,18
2022-08-11T01:53:23.828Z,20
2022-08-11T01:54:23.851Z,16
2022-08-11T01:55:23.851Z,16
2022-08-11T01:56:23.852Z,15
2022-08-11T01:57:23.852Z,13
2022-08-11T01:58:23.852Z,14
2022-08-11T01:59:23.853Z,14
2022-08-11T02:00:23.853Z,14
2022-08-11T02:01:23.853Z,14
2022-08-11T02:02:23.854Z,13
2022-08-11T02:03:23.832Z,11
2022-08-11T02:04:23.832Z,9
2022-08-11T02:05:23.832Z,12
2022-08-11T02:06:23.833Z,7
2022-08-11T02:07:23.833Z,8
2022-08-11T02:08:23.834Z,10
2022-08-11T02:09:23.856Z,11
2022-08-11T02:10:23.856Z,9
2022-08-11T02:11:23.857Z,9
2022-08-11T02:12:23.857Z,12
2022-08-11T02:13:23.858Z,9
2022-08-11T02:14:23.858Z,10
2022-08-11T02:15:23.923Z,13
2022-08-11T02:16:23.859Z,15
2022-08-11T02:17:23.859Z,14
2022-08-11T02:18:23.860Z,15
2022-08-11T02:19:23.837Z,15
2022-08-11T02:20:23.838Z,15
2022-08-11T02:21:23.838Z,14
2022-08-11T02:22:23.839Z,14
2022-08-11T02:23:23.839Z,13
2022-08-11T02:24:23.839Z,13
2022-08-11T02:25:23.862Z,13
2022-08-11T02:26:23.862Z,14
2022-08-11T02:27:23.863Z,13
2022-08-11T02:28:23.863Z,13
2022-08-11T02:29:23.863Z,15
2022-08-11T02:30:23.864Z,17
2022-08-11T02:31:23.864Z,12
2022-08-11T02:32:23.865Z,12
2022-08-11T02:33:23.865Z,12
2022-08-11T02:34:23.843Z,12
2022-08-11T02:35:23.843Z,12
2022-08-11T02:36:23.844Z,11
2022-08-11T02:37:23.844Z,11
2022-08-11T02:38:23.844Z,14
2022-08-11T02:39:23.845Z,11
2022-08-11T02:40:23.867Z,14
2022-08-11T02:41:23.868Z,12
2022-08-11T02:42:23.868Z,12
2022-08-11T02:43:23.868Z,10
2022-08-11T02:44:23.869Z,11
2022-08-11T02:45:23.869Z,12
2022-08-11T02:46:23.870Z,14
2022-08-11T02:47:23.870Z,11
2022-08-11T02:48:23.870Z,10
2022-08-11T02:49:23.848Z,10
2022-08-11T02:50:23.849Z,10
2022-08-11T02:51:24.653Z,10
2022-08-11T02:52:23.849Z,11
2022-08-11T02:53:23.850Z,11
2022-08-11T02:54:23.850Z,12
2022-08-11T02:55:23.873Z,12
2022-08-11T02:56:23.873Z,13
2022-08-11T02:57:23.873Z,14
2022-08-11T02:58:23.874Z,16
2022-08-11T02:59:23.874Z,20
2022-08-11T03:00:23.875Z,18
2022-08-11T03:01:23.875Z,13
2022-08-11T03:02:23.875Z,12
2022-08-11T03:03:23.876Z,13
2022-08-11T03:04:23.853Z,12
2022-08-11T03:05:23.854Z,12
2022-08-11T03:06:23.854Z,13
2022-08-11T03:07:23.855Z,12
2022-08-11T03:08:23.855Z,13
2022-08-11T03:09:23.855Z,15
2022-08-11T03:10:23.878Z,16
2022-08-11T03:11:23.878Z,16
2022-08-11T03:12:23.879Z,15
2022-08-11T03:13:23.879Z,14
2022-08-11T03:14:23.879Z,12
2022-08-11T03:15:23.880Z,11
2022-08-11T03:16:23.880Z,12
2022-08-11T03:17:23.881Z,12
2022-08-11T03:18:23.881Z,11
2022-08-11T03:19:23.859Z,12
2022-08-11T03:20:23.859Z,11
2022-08-11T03:21:23.859Z,12
2022-08-11T03:22:23.860Z,13
2022-08-11T03:23:23.860Z,12
2022-08-11T03:24:23.861Z,13
2022-08-11T03:25:23.883Z,15
2022-08-11T03:26:23.884Z,19
2022-08-11T03:27:23.884Z,15
2022-08-11T03:28:23.884Z,19
2022-08-11T03:29:23.885Z,16
2022-08-11T03:30:23.885Z,17
2022-08-11T03:31:23.902Z,17
2022-08-11T03:32:23.886Z,16
2022-08-11T03:33:23.886Z,15
2022-08-11T03:34:23.887Z,14
2022-08-11T03:35:23.864Z,13
2022-08-11T03:36:23.865Z,18
2022-08-11T03:37:23.865Z,16
2022-08-11T03:38:23.865Z,17
2022-08-11T03:39:23.866Z,14
2022-08-11T03:40:23.866Z,13
2022-08-11T03:41:23.889Z,11
2022-08-11T03:42:23.889Z,9
2022-08-11T03:43:23.890Z,9
2022-08-11T03:44:23.890Z,9
2022-08-11T03:45:23.890Z,10
2022-08-11T03:46:23.891Z,8
2022-08-11T03:47:23.891Z,9
2022-08-11T03:48:23.891Z,7
2022-08-11T03:49:23.892Z,7
2022-08-11T03:50:23.870Z,8
2022-08-11T03:51:23.870Z,8
2022-08-11T03:52:23.870Z,8
2022-08-11T03:53:23.871Z,9
2022-08-11T03:54:23.871Z,11
2022-08-11T03:55:23.871Z,11
2022-08-11T03:56:23.894Z,11
2022-08-11T03:57:23.894Z,10
2022-08-11T03:58:23.895Z,12
2022-08-11T03:59:23.895Z,11
2022-08-11T04:00:23.895Z,12
2022-08-11T04:01:23.896Z,10
2022-08-11T04:02:23.896Z,11
2022-08-11T04:03:23.897Z,12
2022-08-11T04:04:23.897Z,11
2022-08-11T04:05:23.875Z,14
2022-08-11T04:06:23.875Z,14
2022-08-11T04:07:23.875Z,13
2022-08-11T04:08:23.876Z,13
2022-08-11T04:09:23.876Z,14
2022-08-11T04:10:23.876Z,16
2022-08-11T04:11:23.899Z,16
2022-08-11T04:12:23.899Z,16
2022-08-11T04:13:23.900Z,8
2022-08-11T04:14:23.900Z,9
2022-08-11T04:15:23.901Z,17
2022-08-11T04:16:23.901Z,16
2022-08-11T04:17:23.901Z,12
2022-08-11T04:18:23.902Z,14
2022-08-11T04:19:23.902Z,14
2022-08-11T04:20:23.880Z,12
2022-08-11T04:21:23.880Z,12
2022-08-11T04:22:23.880Z,12
2022-08-11T04:23:23.881Z,15
2022-08-11T04:24:23.881Z,18
2022-08-11T04:25:23.881Z,13
2022-08-11T04:26:23.904Z,13
2022-08-11T04:27:23.904Z,18
2022-08-11T04:28:23.905Z,16
2022-08-11T04:29:23.905Z,17
2022-08-11T04:30:23.905Z,21
2022-08-11T04:31:23.906Z,18
2022-08-11T04:32:23.923Z,17
2022-08-11T04:33:23.907Z,16
2022-08-11T04:34:23.907Z,20
2022-08-11T04:35:23.908Z,18
2022-08-11T04:36:23.885Z,18
2022-08-11T04:37:23.885Z,18
2022-08-11T04:38:23.886Z,18
2022-08-11T04:39:23.886Z,17
2022-08-11T04:40:23.886Z,17
2022-08-11T04:41:23.887Z,22
2022-08-11T04:42:23.910Z,20
2022-08-11T04:43:23.910Z,21
2022-08-11T04:44:23.910Z,19
2022-08-11T04:45:23.911Z,22
2022-08-11T04:46:23.911Z,20
2022-08-11T04:47:23.911Z,15
2022-08-11T04:48:23.912Z,16
2022-08-11T04:49:23.912Z,19
2022-08-11T04:51:23.890Z,14
2022-08-11T04:52:23.891Z,16
2022-08-11T04:53:23.891Z,17
2022-08-11T04:54:23.891Z,14
2022-08-11T04:55:23.891Z,15
2022-08-11T04:56:23.892Z,17
2022-08-11T04:57:23.915Z,16
2022-08-11T04:58:23.915Z,19
2022-08-11T04:59:23.915Z,14
2022-08-11T05:00:23.916Z,12
2022-08-11T05:01:23.916Z,17
2022-08-11T05:02:23.933Z,17
2022-08-11T05:03:23.917Z,18
2022-08-11T05:04:23.917Z,15
2022-08-11T05:05:23.918Z,16
2022-08-11T05:06:23.895Z,15
2022-08-11T05:07:23.896Z,16
2022-08-11T05:08:23.896Z,17
2022-08-11T05:09:23.896Z,17
2022-08-11T05:10:23.897Z,15
2022-08-11T05:11:23.897Z,20
2022-08-11T05:12:23.920Z,17
2022-08-11T05:13:23.920Z,18
2022-08-11T05:14:23.920Z,19
2022-08-11T05:15:23.921Z,16
2022-08-11T05:16:23.921Z,15
2022-08-11T05:17:23.986Z,18
2022-08-11T05:18:23.922Z,19
2022-08-11T05:19:23.922Z,18
2022-08-11T05:20:23.923Z,17
2022-08-11T05:21:23.900Z,16
2022-08-11T05:22:23.901Z,22
2022-08-11T05:23:23.901Z,16
2022-08-11T05:24:23.901Z,16
2022-08-11T05:25:23.902Z,17
2022-08-11T05:26:23.902Z,15
2022-08-11T05:27:23.925Z,14
2022-08-11T05:28:23.925Z,15
2022-08-11T05:29:23.926Z,21
2022-08-11T05:30:23.926Z,18
2022-08-11T05:31:23.926Z,18
2022-08-11T05:32:23.927Z,16
2022-08-11T05:33:23.927Z,21
2022-08-11T05:34:23.927Z,22
2022-08-11T05:35:23.928Z,19
2022-08-11T05:36:23.906Z,24
2022-08-11T05:37:23.906Z,22
2022-08-11T05:38:23.906Z,27
2022-08-11T05:39:23.907Z,26
2022-08-11T05:40:23.907Z,26
2022-08-11T05:41:23.907Z,30
2022-08-11T05:42:23.930Z,33
2022-08-11T05:43:23.930Z,27
2022-08-11T05:44:23.931Z,29
2022-08-11T05:45:23.931Z,30
2022-08-11T05:46:23.931Z,29
2022-08-11T05:47:23.932Z,26
2022-08-11T05:48:23.932Z,28
2022-08-11T05:49:23.933Z,29
2022-08-11T05:50:23.933Z,25
2022-08-11T05:51:23.911Z,29
2022-08-11T05:52:23.911Z,34
2022-08-11T05:53:23.911Z,30
2022-08-11T05:54:23.912Z,28
2022-08-11T05:55:23.912Z,28
2022-08-11T05:56:23.913Z,33
2022-08-11T05:57:23.935Z,30
2022-08-11T05:58:23.936Z,26
2022-08-11T05:59:23.936Z,30
2022-08-11T06:00:23.936Z,31
2022-08-11T06:01:23.937Z,25
2022-08-11T06:02:23.937Z,25
2022-08-11T06:03:24.002Z,23
2022-08-11T06:04:23.938Z,19
2022-08-11T06:05:23.938Z,14
2022-08-11T06:06:23.939Z,11
2022-08-11T06:07:23.917Z,12
2022-08-11T06:08:23.917Z,16
2022-08-11T06:09:23.940Z,17
2022-08-11T06:10:23.918Z,15
2022-08-11T06:11:23.918Z,14
2022-08-11T06:12:23.941Z,13
2022-08-11T06:13:23.941Z,12
2022-08-11T06:14:23.942Z,12
2022-08-11T06:15:23.942Z,21
2022-08-11T06:16:23.942Z,21
2022-08-11T06:17:23.943Z,17
2022-08-11T06:18:24.008Z,25
2022-08-11T06:19:23.944Z,21
2022-08-11T06:20:23.944Z,22
2022-08-11T06:21:23.945Z,27
2022-08-11T06:22:23.922Z,29
2022-08-11T06:23:23.923Z,26
2022-08-11T06:24:23.923Z,25
2022-08-11T06:25:23.924Z,27
2022-08-11T06:26:23.924Z,26
2022-08-11T06:27:23.924Z,27
2022-08-11T06:28:23.947Z,30
2022-08-11T06:29:23.947Z,27
2022-08-11T06:30:23.948Z,18
2022-08-11T06:31:23.949Z,22
2022-08-11T06:32:23.949Z,22
2022-08-11T06:33:23.949Z,28
2022-08-11T06:34:23.950Z,32
2022-08-11T06:35:23.950Z,25
2022-08-11T06:36:23.951Z,23
2022-08-11T06:37:23.928Z,19
2022-08-11T06:38:23.929Z,22
2022-08-11T06:39:23.929Z,23
2022-08-11T06:40:23.930Z,24
2022-08-11T06:41:23.930Z,22
2022-08-11T06:42:23.931Z,27
2022-08-11T06:43:23.953Z,31
2022-08-11T06:44:23.954Z,29
2022-08-11T06:45:23.954Z,28
2022-08-11T06:46:23.955Z,24
2022-08-11T06:48:23.956Z,28
2022-08-11T06:49:23.956Z,29
2022-08-11T06:50:23.957Z,31
2022-08-11T06:51:23.957Z,28
2022-08-11T06:52:23.935Z,24
2022-08-11T06:53:23.935Z,21
2022-08-11T06:54:23.936Z,23
2022-08-11T06:55:23.936Z,29
2022-08-11T06:56:23.937Z,29
2022-08-11T06:57:23.937Z,31
2022-08-11T06:58:23.960Z,21
2022-08-11T06:59:23.960Z,23
2022-08-11T07:00:23.961Z,22
2022-08-11T07:01:23.961Z,21
2022-08-11T07:02:23.962Z,24
2022-08-11T07:03:23.962Z,26
2022-08-11T07:04:24.027Z,26
2022-08-11T07:05:23.963Z,24
2022-08-11T07:06:23.964Z,25
2022-08-11T07:07:23.965Z,29
2022-08-11T07:08:23.942Z,28
2022-08-11T07:09:23.942Z,28
2022-08-11T07:10:23.943Z,30
2022-08-11T07:11:23.943Z,27
2022-08-11T07:12:23.944Z,37
2022-08-11T07:13:23.967Z,37
2022-08-11T07:14:23.967Z,37
2022-08-11T07:15:23.967Z,35
2022-08-11T07:16:23.968Z,36
2022-08-11T07:17:23.968Z,40
2022-08-11T07:18:23.969Z,37
2022-08-11T07:19:24.010Z,43
2022-08-11T07:20:23.970Z,39
2022-08-11T07:21:23.970Z,35
2022-08-11T07:22:23.971Z,39
2022-08-11T07:23:23.949Z,36
2022-08-11T07:24:23.949Z,41
2022-08-11T07:25:23.950Z,36
2022-08-11T07:26:23.950Z,39
2022-08-11T07:27:23.950Z,45
2022-08-11T07:28:23.951Z,40
2022-08-11T07:29:23.974Z,38
2022-08-11T07:30:23.974Z,40
2022-08-11T07:31:23.975Z,44
2022-08-11T07:32:23.976Z,39
2022-08-11T07:33:23.976Z,45
2022-08-11T07:34:23.976Z,42
2022-08-11T07:35:23.977Z,43
2022-08-11T07:36:23.977Z,36
2022-08-11T07:37:23.978Z,44
2022-08-11T07:38:23.956Z,42
2022-08-11T07:39:23.956Z,42
2022-08-11T07:40:23.956Z,46
2022-08-11T07:41:23.957Z,49
2022-08-11T07:42:23.957Z,43
2022-08-11T07:43:23.958Z,40
2022-08-11T07:44:23.981Z,40
2022-08-11T07:45:23.981Z,47
2022-08-11T07:46:23.982Z,48
2022-08-11T07:47:23.982Z,40
2022-08-11T07:48:23.983Z,44
2022-08-11T07:49:23.983Z,44
2022-08-11T07:50:23.984Z,41
2022-08-11T07:51:23.984Z,41
2022-08-11T07:52:23.985Z,48
2022-08-11T07:53:23.963Z,53
2022-08-11T07:54:23.963Z,49
2022-08-11T07:55:23.964Z,56
2022-08-11T07:56:23.964Z,53
2022-08-11T07:57:23.965Z,59
2022-08-11T07:58:23.965Z,58
2022-08-11T07:59:23.988Z,59
2022-08-11T08:00:23.988Z,76
2022-08-11T08:01:23.989Z,63
2022-08-11T08:02:23.989Z,69
2022-08-11T08:03:23.990Z,67
2022-08-11T08:04:23.990Z,68
2022-08-11T08:05:24.031Z,71
2022-08-11T08:06:23.991Z,55
2022-08-11T08:07:23.992Z,64
2022-08-11T08:08:23.992Z,61
2022-08-11T08:09:23.970Z,65
2022-08-11T08:10:23.971Z,61
2022-08-11T08:11:23.971Z,59
2022-08-11T08:12:23.972Z,59
2022-08-11T08:13:23.972Z,56
2022-08-11T08:14:23.995Z,58
2022-08-11T08:15:23.996Z,61
2022-08-11T08:16:23.996Z,55
2022-08-11T08:17:24.037Z,60
2022-08-11T08:18:23.998Z,64
2022-08-11T08:19:23.998Z,63
2022-08-11T08:20:23.998Z,53
2022-08-11T08:21:23.999Z,56
2022-08-11T08:22:24.000Z,56
2022-08-11T08:23:24.000Z,53
2022-08-11T08:24:23.978Z,63
2022-08-11T08:25:23.979Z,63
2022-08-11T08:26:23.979Z,59
2022-08-11T08:27:23.980Z,49
2022-08-11T08:28:23.980Z,48
2022-08-11T08:29:23.981Z,53
2022-08-11T08:30:24.004Z,68
2022-08-11T08:31:24.004Z,64
2022-08-11T08:32:24.005Z,78
2022-08-11T08:33:24.005Z,84
2022-08-11T08:34:24.006Z,82
2022-08-11T08:35:24.007Z,85
2022-08-11T08:36:24.007Z,70
2022-08-11T08:37:24.009Z,74
2022-08-11T08:38:24.008Z,68
2022-08-11T08:39:23.987Z,69
2022-08-11T08:40:23.987Z,68
2022-08-11T08:41:23.988Z,70
2022-08-11T08:42:23.988Z,69
2022-08-11T08:43:23.989Z,77
2022-08-11T08:44:23.989Z,80
2022-08-11T08:45:24.012Z,79
2022-08-11T08:46:24.013Z,77
2022-08-11T08:47:24.013Z,66
2022-08-11T08:48:24.014Z,71
2022-08-11T08:49:24.014Z,64
2022-08-11T08:50:24.015Z,60
2022-08-11T08:51:24.016Z,73
2022-08-11T08:52:24.016Z,69
2022-08-11T08:53:24.017Z,82
2022-08-11T08:54:24.058Z,78
2022-08-11T08:55:23.996Z,69
2022-08-11T08:56:23.996Z,71
2022-08-11T08:57:23.997Z,81
2022-08-11T08:58:23.997Z,80
2022-08-11T08:59:23.998Z,74
2022-08-11T09:00:23.998Z,68
2022-08-11T09:01:24.021Z,73
2022-08-11T09:02:24.022Z,73
2022-08-11T09:03:24.031Z,72
2022-08-11T09:04:24.023Z,73
2022-08-11T09:05:24.024Z,64
2022-08-11T09:06:24.024Z,60
2022-08-11T09:07:24.025Z,66
2022-08-11T09:08:24.025Z,61
2022-08-11T09:09:24.026Z,64
2022-08-11T09:10:24.004Z,50
2022-08-11T09:11:24.005Z,62
2022-08-11T09:12:24.027Z,55
2022-08-11T09:13:24.006Z,55
2022-08-11T09:14:24.006Z,58
2022-08-11T09:15:24.030Z,46
2022-08-11T09:16:24.030Z,36
2022-08-11T09:17:24.030Z,48
2022-08-11T09:18:24.031Z,58
2022-08-11T09:19:24.031Z,56
2022-08-11T09:20:24.032Z,60
2022-08-11T09:21:24.033Z,66
2022-08-11T09:22:24.033Z,71
2022-08-11T09:23:24.034Z,69
2022-08-11T09:24:24.035Z,63
2022-08-11T09:25:24.012Z,80
2022-08-11T09:26:24.013Z,75
2022-08-11T09:27:24.014Z,67
2022-08-11T09:28:24.014Z,63
2022-08-11T09:29:24.015Z,62
2022-08-11T09:30:24.015Z,58
2022-08-11T09:31:24.038Z,52
2022-08-11T09:32:24.039Z,62
2022-08-11T09:33:24.039Z,55
2022-08-11T09:34:24.040Z,46
2022-08-11T09:35:24.041Z,44
2022-08-11T09:36:24.041Z,64
2022-08-11T09:37:24.042Z,55
2022-08-11T09:38:24.042Z,49
2022-08-11T09:39:24.043Z,55
2022-08-11T09:40:24.021Z,64
2022-08-11T09:41:24.022Z,59
2022-08-11T09:42:24.022Z,59
2022-08-11T09:43:24.023Z,63
2022-08-11T09:44:24.023Z,63
2022-08-11T09:45:24.024Z,60
2022-08-11T09:46:24.047Z,62
2022-08-11T09:47:24.047Z,57
2022-08-11T09:48:24.048Z,55
2022-08-11T09:49:24.049Z,59
2022-08-11T09:50:24.050Z,64
2022-08-11T09:51:24.050Z,67
2022-08-11T09:52:24.051Z,55
2022-08-11T09:53:24.051Z,63
2022-08-11T09:54:24.052Z,61
2022-08-11T09:55:24.117Z,59
2022-08-11T09:56:24.030Z,54
2022-08-11T09:57:24.031Z,63
2022-08-11T09:58:24.053Z,67
2022-08-11T09:59:24.032Z,76
2022-08-11T10:00:24.033Z,74
2022-08-11T10:01:24.056Z,61
2022-08-11T10:02:24.056Z,65
2022-08-11T10:03:24.057Z,63
2022-08-11T10:04:24.058Z,82
2022-08-11T10:05:24.058Z,83
2022-08-11T10:06:24.059Z,77
2022-08-11T10:07:24.059Z,74
2022-08-11T10:08:24.060Z,58
2022-08-11T10:09:24.060Z,67
2022-08-11T10:10:24.061Z,68
2022-08-11T10:11:24.039Z,86
2022-08-11T10:12:24.040Z,74
2022-08-11T10:13:24.040Z,66
2022-08-11T10:14:24.041Z,65
2022-08-11T10:15:24.041Z,60
2022-08-11T10:16:24.042Z,56
2022-08-11T10:17:24.065Z,61
2022-08-11T10:18:24.066Z,63
2022-08-11T10:19:24.066Z,62
2022-08-11T10:20:24.067Z,57
2022-08-11T10:21:24.067Z,59
2022-08-11T10:22:24.068Z,61
2022-08-11T10:23:24.069Z,71
2022-08-11T10:24:24.069Z,67
2022-08-11T10:25:24.070Z,74
2022-08-11T10:26:24.048Z,74
2022-08-11T10:27:24.048Z,72
2022-08-11T10:28:24.049Z,76
2022-08-11T10:29:24.050Z,83
2022-08-11T10:30:24.050Z,82
2022-08-11T10:31:24.051Z,73
2022-08-11T10:32:24.074Z,83
2022-08-11T10:33:24.074Z,89
2022-08-11T10:34:24.075Z,84
2022-08-11T10:35:24.075Z,78
2022-08-11T10:36:24.076Z,77
2022-08-11T10:37:24.077Z,76
2022-08-11T10:38:24.077Z,81
2022-08-11T10:39:24.078Z,85
2022-08-11T10:40:24.079Z,81
2022-08-11T10:41:24.057Z,77
2022-08-11T10:42:24.057Z,76
2022-08-11T10:43:24.058Z,74
2022-08-11T10:44:24.058Z,82
2022-08-11T10:45:24.059Z,83
2022-08-11T10:46:24.060Z,77
2022-08-11T10:47:24.082Z,78
2022-08-11T10:48:24.083Z,80
2022-08-11T10:49:24.084Z,74
2022-08-11T10:50:24.084Z,72
2022-08-11T10:51:24.085Z,77
2022-08-11T10:52:24.085Z,79
2022-08-11T10:53:24.151Z,74
2022-08-11T10:54:24.087Z,78
2022-08-11T10:55:24.087Z,80
2022-08-11T10:56:24.089Z,91
2022-08-11T10:57:24.066Z,88
2022-08-11T10:58:24.067Z,79
2022-08-11T10:59:24.067Z,77
2022-08-11T11:00:24.068Z,90
2022-08-11T11:01:24.069Z,89
2022-08-11T11:02:24.069Z,76
2022-08-11T11:03:24.092Z,86
2022-08-11T11:04:24.093Z,80
2022-08-11T11:05:24.093Z,67
2022-08-11T11:06:24.094Z,74
2022-08-11T11:07:24.094Z,58
2022-08-11T11:08:24.095Z,61
2022-08-11T11:09:24.096Z,66
2022-08-11T11:10:24.096Z,60
2022-08-11T11:11:24.097Z,62
2022-08-11T11:12:24.075Z,76
2022-08-11T11:13:24.076Z,68
2022-08-11T11:14:24.076Z,62
2022-08-11T11:15:24.077Z,66
2022-08-11T11:16:24.077Z,74
2022-08-11T11:17:24.078Z,77
2022-08-11T11:18:24.101Z,70
2022-08-11T11:19:24.102Z,73
2022-08-11T11:20:24.142Z,80
2022-08-11T11:21:24.103Z,77
2022-08-11T11:22:24.104Z,83
2022-08-11T11:23:24.104Z,82
2022-08-11T11:24:24.105Z,78
2022-08-11T11:25:24.105Z,84
2022-08-11T11:26:24.106Z,83
2022-08-11T11:27:24.084Z,74
2022-08-11T11:28:24.085Z,66
2022-08-11T11:29:24.085Z,71
2022-08-11T11:30:24.086Z,73
2022-08-11T11:31:24.086Z,72
2022-08-11T11:32:24.087Z,70
2022-08-11T11:33:24.110Z,73
2022-08-11T11:34:24.111Z,74
2022-08-11T11:35:24.111Z,67
2022-08-11T11:36:24.112Z,76
2022-08-11T11:37:24.112Z,79
2022-08-11T11:38:24.113Z,75
2022-08-11T11:39:24.114Z,59
2022-08-11T11:40:24.114Z,59
2022-08-11T11:41:24.115Z,60
2022-08-11T11:42:24.093Z,59
2022-08-11T11:43:24.094Z,57
2022-08-11T11:44:24.094Z,53
2022-08-11T11:45:24.095Z,58
2022-08-11T11:46:24.095Z,54
2022-08-11T11:47:24.096Z,62
2022-08-11T11:48:24.119Z,59
2022-08-11T11:49:24.120Z,64
2022-08-11T11:50:24.120Z,60
2022-08-11T11:51:24.121Z,61
2022-08-11T11:52:24.121Z,62
2022-08-11T11:53:24.122Z,52
2022-08-11T11:54:24.123Z,56
2022-08-11T11:55:24.123Z,63
2022-08-11T11:57:24.165Z,63
2022-08-11T11:58:24.102Z,54
2022-08-11T11:59:24.103Z,64
2022-08-11T12:00:24.104Z,73
2022-08-11T12:01:24.104Z,71
2022-08-11T12:02:24.105Z,69
2022-08-11T12:03:24.105Z,63
2022-08-11T12:04:24.128Z,65
2022-08-11T12:05:24.129Z,70
2022-08-11T12:06:24.170Z,63
2022-08-11T12:07:24.130Z,61
2022-08-11T12:08:24.131Z,62
2022-08-11T12:09:24.131Z,61
2022-08-11T12:10:24.132Z,53
2022-08-11T12:11:24.133Z,53
2022-08-11T12:13:24.111Z,58
2022-08-11T12:14:24.112Z,67
2022-08-11T12:15:24.113Z,76
2022-08-11T12:16:24.113Z,73
2022-08-11T12:17:24.114Z,72
2022-08-11T12:18:24.114Z,72
2022-08-11T12:19:24.137Z,71
2022-08-11T12:20:24.138Z,60
2022-08-11T12:21:24.139Z,63
2022-08-11T12:22:24.139Z,76
2022-08-11T12:23:24.140Z,74
2022-08-11T12:24:24.141Z,70
2022-08-11T12:25:24.141Z,68
2022-08-11T12:26:24.142Z,63
2022-08-11T12:27:24.142Z,59
2022-08-11T12:28:24.120Z,75
2022-08-11T12:29:24.121Z,75
2022-08-11T12:30:24.122Z,79
2022-08-11T12:31:24.122Z,65
2022-08-11T12:32:24.123Z,70
2022-08-11T12:33:24.123Z,65
2022-08-11T12:34:24.146Z,69
2022-08-11T12:35:24.147Z,62
2022-08-11T12:36:24.147Z,62
2022-08-11T12:37:24.148Z,67
2022-08-11T12:38:24.149Z,63
2022-08-11T12:39:24.150Z,70
2022-08-11T12:40:24.150Z,54
2022-08-11T12:41:24.151Z,54
2022-08-11T12:42:24.151Z,56
2022-08-11T12:43:24.130Z,65
2022-08-11T12:44:24.130Z,64
2022-08-11T12:45:24.131Z,68
2022-08-11T12:46:24.131Z,60
2022-08-11T12:47:24.132Z,53
2022-08-11T12:48:24.133Z,68
2022-08-11T12:49:24.156Z,64
2022-08-11T12:50:24.156Z,66
2022-08-11T12:51:24.157Z,52
2022-08-11T12:52:24.157Z,63
2022-08-11T12:53:24.158Z,57
2022-08-11T12:54:24.159Z,53
2022-08-11T12:55:24.159Z,57
2022-08-11T12:56:24.160Z,53
2022-08-11T12:57:24.161Z,51
2022-08-11T12:58:24.186Z,49
2022-08-11T12:59:24.139Z,65
2022-08-11T13:00:24.140Z,74
2022-08-11T13:01:24.141Z,65
2022-08-11T13:02:24.141Z,63
2022-08-11T13:03:24.142Z,67
2022-08-11T13:04:24.165Z,79
2022-08-11T13:05:24.165Z,70
2022-08-11T13:06:24.166Z,63
2022-08-11T13:07:24.175Z,61
2022-08-11T13:08:24.167Z,63
2022-08-11T13:09:24.168Z,61
2022-08-11T13:10:24.168Z,61
2022-08-11T13:11:24.169Z,77
2022-08-11T13:12:30.652Z,74
2022-08-11T13:13:24.195Z,69
2022-08-11T13:14:24.148Z,58
2022-08-11T13:15:24.149Z,66
2022-08-11T13:16:24.150Z,64
2022-08-11T13:17:24.150Z,62
2022-08-11T13:18:24.151Z,61
2022-08-11T13:19:24.174Z,64
2022-08-11T13:20:24.174Z,57
2022-08-11T13:21:24.175Z,52
2022-08-11T13:22:24.184Z,56
2022-08-11T13:23:24.176Z,59
2022-08-11T13:24:24.177Z,57
2022-08-11T13:25:24.177Z,55
2022-08-11T13:26:24.178Z,57
2022-08-11T13:27:24.179Z,61
2022-08-11T13:28:24.179Z,61
2022-08-11T13:29:24.157Z,70
2022-08-11T13:30:24.158Z,64
2022-08-11T13:31:24.159Z,62
2022-08-11T13:32:24.159Z,69
2022-08-11T13:33:24.160Z,73
2022-08-11T13:34:24.161Z,78
2022-08-11T13:35:24.183Z,62
2022-08-11T13:36:24.184Z,72
2022-08-11T13:37:24.185Z,75
2022-08-11T13:38:24.186Z,61
2022-08-11T13:39:24.186Z,62
2022-08-11T13:40:24.187Z,68
2022-08-11T13:41:24.187Z,60
2022-08-11T13:42:24.188Z,56
2022-08-11T13:43:24.189Z,53
2022-08-11T13:44:24.167Z,55
2022-08-11T13:45:24.167Z,57
2022-08-11T13:46:24.168Z,56
2022-08-11T13:47:24.168Z,58
2022-08-11T13:48:24.169Z,71
2022-08-11T13:49:24.170Z,71
2022-08-11T13:50:24.192Z,69
2022-08-11T13:51:24.193Z,61
2022-08-11T13:52:24.194Z,64
2022-08-11T13:53:24.195Z,67
2022-08-11T13:54:24.195Z,68
2022-08-11T13:55:24.196Z,65
2022-08-11T13:56:24.196Z,69
2022-08-11T13:57:24.197Z,63
2022-08-11T13:58:24.198Z,64
2022-08-11T13:59:24.223Z,56
2022-08-11T14:00:24.176Z,70
2022-08-11T14:01:24.177Z,73
2022-08-11T14:02:24.177Z,65
2022-08-11T14:03:24.178Z,64
2022-08-11T14:04:24.179Z,62
2022-08-11T14:05:24.202Z,47
2022-08-11T14:06:24.202Z,49
2022-08-11T14:07:24.203Z,62
2022-08-11T14:08:24.211Z,53
2022-08-11T14:09:24.204Z,49
2022-08-11T14:10:24.205Z,50
2022-08-11T14:11:24.205Z,62
2022-08-11T14:12:29.717Z,54
2022-08-11T14:13:24.206Z,53
2022-08-11T14:14:24.185Z,55
2022-08-11T14:15:24.185Z,53
2022-08-11T14:16:24.186Z,49
2022-08-11T14:17:24.186Z,55
2022-08-11T14:18:24.187Z,68
2022-08-11T14:19:24.188Z,46
2022-08-11T14:20:24.210Z,46